createdAt,value
2019-01-18T00:00:01.081Z,0.70
2019-01-18T01:02:05.160Z,0.40
2019-01-18T01:07:06.454Z,0.60
2019-01-18T01:12:07.748Z,0.40
2019-01-18T01:17:09.065Z,0.40
2019-01-18T01:22:11.114Z,0.40
2019-01-18T01:27:15.928Z,0.37
2019-01-18T02:35:37.290Z,1.10
2019-01-18T02:40:38.567Z,1.10
2019-01-18T02:45:44.913Z,1.10
2019-01-18T02:50:46.227Z,1.00
2019-01-18T02:55:47.493Z,1.13
2019-01-18T04:04:10.351Z,1.57
2019-01-18T04:09:11.662Z,1.27
2019-01-18T04:14:13.686Z,1.40
2019-01-18T04:19:15.070Z,1.80
2019-01-18T04:24:16.364Z,1.30
2019-01-18T04:29:17.641Z,1.30
2019-01-18T05:31:19.277Z,1.50
2019-01-18T05:36:20.565Z,1.30
2019-01-18T05:41:21.830Z,1.40
2019-01-18T05:46:23.113Z,1.43
2019-01-18T05:51:24.408Z,1.30
2019-01-18T05:56:26.456Z,1.40
2019-01-18T07:04:48.805Z,1.40
2019-01-18T07:09:50.855Z,1.10
2019-01-18T07:14:55.494Z,1.40
2019-01-18T07:19:56.959Z,1.27
2019-01-18T07:24:58.273Z,1.13
2019-01-18T07:29:59.574Z,1.20
2019-01-18T08:32:03.199Z,1.73
2019-01-18T08:37:04.566Z,1.60
2019-01-18T08:42:05.976Z,1.37
2019-01-18T08:47:08.946Z,1.47
2019-01-18T08:52:10.300Z,1.30
2019-01-18T08:57:11.677Z,1.67
2019-01-18T10:05:35.424Z,1.40
2019-01-18T10:10:37.550Z,1.50
2019-01-18T10:15:38.897Z,1.60
2019-01-18T10:20:40.319Z,1.40
2019-01-18T10:25:41.764Z,1.43
2019-01-18T11:34:04.922Z,1.70
2019-01-18T11:39:06.961Z,1.57
2019-01-18T11:44:08.253Z,1.70
2019-01-18T11:49:09.532Z,1.47
2019-01-18T11:54:11.541Z,1.50
2019-01-18T11:59:12.804Z,1.70
2019-01-18T13:01:14.894Z,1.30
2019-01-18T13:06:16.187Z,1.30
2019-01-18T13:11:17.481Z,1.87
2019-01-18T13:16:18.763Z,1.90
2019-01-18T13:21:20.058Z,1.70
2019-01-18T13:26:22.128Z,1.67
2019-01-18T14:34:43.329Z,1.70
2019-01-18T14:39:44.673Z,1.50
2019-01-18T14:44:46.738Z,1.80
2019-01-18T14:49:48.675Z,2.00
2019-01-18T14:54:50.004Z,2.00
2019-01-18T14:59:51.418Z,2.17
2019-01-18T16:01:54.050Z,3.77
2019-01-18T16:06:55.453Z,6.93
2019-01-18T16:11:56.725Z,4.07
2019-01-18T16:16:58.067Z,3.97
2019-01-18T16:21:59.342Z,3.60
2019-01-18T16:27:00.640Z,3.30
2019-01-18T16:32:01.956Z,3.87
2019-01-18T16:37:03.254Z,4.00
2019-01-18T16:42:06.217Z,3.53
2019-01-18T16:47:09.614Z,3.57
2019-01-18T16:52:11.792Z,3.57
2019-01-18T16:57:13.841Z,4.13
2019-01-18T17:02:16.685Z,4.13
2019-01-18T17:07:36.483Z,4.80
2019-01-18T17:12:38.282Z,5.23
2019-01-18T17:17:54.209Z,5.10
2019-01-18T17:22:55.509Z,4.03
2019-01-18T17:27:57.529Z,4.43
2019-01-18T17:32:58.804Z,4.23
2019-01-18T17:38:00.122Z,3.53
2019-01-18T17:43:05.900Z,3.43
2019-01-18T17:48:19.108Z,3.27
2019-01-18T17:53:23.206Z,3.27
2019-01-18T17:58:33.627Z,3.27
2019-01-18T18:03:51.245Z,3.27
2019-01-18T18:09:08.381Z,2.80
2019-01-18T18:26:05.342Z,5.03
2019-01-18T18:36:53.802Z,4.47
2019-01-18T18:42:03.776Z,3.33
2019-01-18T18:47:27.842Z,3.80
2019-01-18T18:58:20.538Z,4.60
2019-01-18T19:03:32.477Z,4.33
2019-01-18T19:08:40.585Z,4.37
2019-01-18T19:14:15.753Z,4.00
2019-01-18T19:19:37.964Z,5.03
2019-01-18T19:24:47.101Z,5.03
2019-01-18T19:35:37.576Z,5.00
2019-01-18T19:41:07.924Z,4.63
2019-01-18T19:46:13.025Z,5.00
2019-01-18T19:51:42.097Z,4.27
2019-01-18T19:56:52.444Z,5.73
2019-01-18T20:02:25.635Z,5.17
2019-01-18T20:07:34.684Z,5.23
2019-01-18T20:12:45.685Z,4.90
2019-01-18T20:17:55.750Z,4.57
2019-01-18T20:23:07.920Z,4.50
2019-01-18T20:28:24.704Z,4.10
2019-01-18T20:39:33.780Z,5.20
2019-01-18T20:50:41.829Z,5.07
2019-01-18T20:56:07.670Z,4.13
2019-01-18T21:01:16.656Z,3.87
2019-01-18T21:18:29.027Z,4.65
2019-01-18T21:23:51.145Z,4.23
2019-01-18T21:35:17.973Z,5.70
2019-01-18T21:40:27.974Z,4.20
2019-01-18T21:51:39.644Z,6.10
2019-01-18T21:56:49.935Z,5.50
2019-01-18T22:01:55.661Z,5.03
2019-01-18T22:07:19.077Z,5.20
2019-01-18T22:18:28.506Z,7.20
2019-01-18T22:23:32.198Z,5.90
2019-01-18T22:28:57.291Z,5.37
2019-01-18T22:34:07.201Z,4.80
2019-01-18T22:39:35.362Z,5.90
2019-01-18T22:44:44.397Z,5.20
2019-01-18T22:49:47.544Z,5.10
2019-01-18T22:54:59.663Z,4.23
2019-01-18T23:00:18.180Z,4.57
2019-01-18T23:31:04.500Z,4.60
2019-01-18T23:36:12.103Z,3.47
2019-01-18T23:41:31.942Z,4.83
2019-01-18T23:46:47.156Z,5.03
2019-01-18T23:52:01.437Z,5.57
2019-01-18T23:57:09.557Z,4.77
